sensor_id;sensor_type;location;lat;lon;timestamp;P1;durP1;ratioP1;P2;durP2;ratioP2
71639;SDS011;60912;48.968;10.124;2023-07-20T00:00:25;3.20;;;1.50;;
71639;SDS011;60912;48.968;10.124;2023-07-20T00:03:13;3.45;;;1.55;;
71639;SDS011;60912;48.968;10.124;2023-07-20T00:05:44;4.83;;;1.40;;
71639;SDS011;60912;48.968;10.124;2023-07-20T00:08:10;3.95;;;1.40;;
71639;SDS011;60912;48.968;10.124;2023-07-20T00:10:35;6.27;;;1.53;;
71639;SDS011;60912;48.968;10.124;2023-07-20T00:13:00;4.97;;;1.60;;
71639;SDS011;60912;48.968;10.124;2023-07-20T00:15:26;6.70;;;1.43;;
71639;SDS011;60912;48.968;10.124;2023-07-20T00:17:51;3.43;;;1.60;;
71639;SDS011;60912;48.968;10.124;2023-07-20T00:20:16;4.63;;;1.40;;
71639;SDS011;60912;48.968;10.124;2023-07-20T00:22:42;2.90;;;1.40;;
71639;SDS011;60912;48.968;10.124;2023-07-20T00:25:08;5.07;;;1.37;;
71639;SDS011;60912;48.968;10.124;2023-07-20T00:27:34;5.07;;;1.60;;
71639;SDS011;60912;48.968;10.124;2023-07-20T00:29:59;6.67;;;1.50;;
71639;SDS011;60912;48.968;10.124;2023-07-20T00:32:24;3.03;;;1.47;;
71639;SDS011;60912;48.968;10.124;2023-07-20T00:34:50;4.33;;;1.90;;
71639;SDS011;60912;48.968;10.124;2023-07-20T00:37:15;3.17;;;1.40;;
71639;SDS011;60912;48.968;10.124;2023-07-20T00:39:40;3.50;;;1.27;;
71639;SDS011;60912;48.968;10.124;2023-07-20T00:42:06;4.60;;;1.77;;
71639;SDS011;60912;48.968;10.124;2023-07-20T00:44:31;3.83;;;1.57;;
71639;SDS011;60912;48.968;10.124;2023-07-20T00:46:56;5.33;;;1.70;;
71639;SDS011;60912;48.968;10.124;2023-07-20T00:49:22;4.60;;;1.53;;
71639;SDS011;60912;48.968;10.124;2023-07-20T00:51:48;5.53;;;1.60;;
71639;SDS011;60912;48.968;10.124;2023-07-20T00:54:14;3.38;;;1.45;;
71639;SDS011;60912;48.968;10.124;2023-07-20T00:56:40;3.67;;;1.33;;
71639;SDS011;60912;48.968;10.124;2023-07-20T00:59:06;3.83;;;1.50;;
71639;SDS011;60912;48.968;10.124;2023-07-20T01:01:31;3.63;;;1.57;;
71639;SDS011;60912;48.968;10.124;2023-07-20T01:03:57;3.08;;;1.63;;
71639;SDS011;60912;48.968;10.124;2023-07-20T01:06:36;5.20;;;1.50;;
71639;SDS011;60912;48.968;10.124;2023-07-20T01:09:19;5.32;;;1.48;;
71639;SDS011;60912;48.968;10.124;2023-07-20T01:11:54;5.15;;;1.65;;
71639;SDS011;60912;48.968;10.124;2023-07-20T01:14:25;4.07;;;1.60;;
71639;SDS011;60912;48.968;10.124;2023-07-20T01:16:51;3.83;;;1.70;;
71639;SDS011;60912;48.968;10.124;2023-07-20T01:19:17;5.95;;;1.60;;
71639;SDS011;60912;48.968;10.124;2023-07-20T01:32:50;5.43;;;1.50;;
71639;SDS011;60912;48.968;10.124;2023-07-20T01:35:21;4.30;;;1.77;;
71639;SDS011;60912;48.968;10.124;2023-07-20T01:37:50;3.75;;;1.50;;
71639;SDS011;60912;48.968;10.124;2023-07-20T01:40:16;7.27;;;1.70;;
71639;SDS011;60912;48.968;10.124;2023-07-20T01:42:43;2.70;;;1.35;;
71639;SDS011;60912;48.968;10.124;2023-07-20T01:45:10;4.10;;;1.80;;
71639;SDS011;60912;48.968;10.124;2023-07-20T01:47:35;5.20;;;1.70;;
71639;SDS011;60912;48.968;10.124;2023-07-20T01:50:01;4.33;;;1.70;;
71639;SDS011;60912;48.968;10.124;2023-07-20T01:52:26;4.73;;;1.73;;
71639;SDS011;60912;48.968;10.124;2023-07-20T01:54:51;3.53;;;1.60;;
71639;SDS011;60912;48.968;10.124;2023-07-20T01:57:17;3.25;;;1.60;;
71639;SDS011;60912;48.968;10.124;2023-07-20T01:59:42;4.57;;;1.87;;
71639;SDS011;60912;48.968;10.124;2023-07-20T02:02:08;5.97;;;1.60;;
71639;SDS011;60912;48.968;10.124;2023-07-20T02:04:33;4.10;;;1.50;;
71639;SDS011;60912;48.968;10.124;2023-07-20T02:06:58;4.50;;;1.63;;
71639;SDS011;60912;48.968;10.124;2023-07-20T02:09:24;4.53;;;1.80;;
71639;SDS011;60912;48.968;10.124;2023-07-20T02:11:49;5.00;;;1.50;;
71639;SDS011;60912;48.968;10.124;2023-07-20T02:14:15;5.10;;;1.70;;
71639;SDS011;60912;48.968;10.124;2023-07-20T02:16:40;4.85;;;1.80;;
71639;SDS011;60912;48.968;10.124;2023-07-20T02:19:06;3.33;;;1.67;;
71639;SDS011;60912;48.968;10.124;2023-07-20T02:21:32;5.30;;;1.70;;
71639;SDS011;60912;48.968;10.124;2023-07-20T02:23:57;5.73;;;1.60;;
71639;SDS011;60912;48.968;10.124;2023-07-20T02:26:23;3.63;;;1.87;;
71639;SDS011;60912;48.968;10.124;2023-07-20T02:28:48;5.90;;;1.70;;
71639;SDS011;60912;48.968;10.124;2023-07-20T02:31:13;4.13;;;1.80;;
71639;SDS011;60912;48.968;10.124;2023-07-20T02:33:39;3.70;;;1.70;;
71639;SDS011;60912;48.968;10.124;2023-07-20T02:36:04;5.10;;;1.57;;
71639;SDS011;60912;48.968;10.124;2023-07-20T02:38:29;4.10;;;1.70;;
71639;SDS011;60912;48.968;10.124;2023-07-20T02:40:55;3.07;;;1.53;;
71639;SDS011;60912;48.968;10.124;2023-07-20T02:43:20;4.80;;;1.73;;
71639;SDS011;60912;48.968;10.124;2023-07-20T02:45:45;3.63;;;1.70;;
71639;SDS011;60912;48.968;10.124;2023-07-20T02:48:11;4.07;;;1.63;;
71639;SDS011;60912;48.968;10.124;2023-07-20T02:50:36;3.70;;;1.63;;
71639;SDS011;60912;48.968;10.124;2023-07-20T02:53:02;2.90;;;1.40;;
71639;SDS011;60912;48.968;10.124;2023-07-20T02:55:27;4.83;;;1.60;;
71639;SDS011;60912;48.968;10.124;2023-07-20T02:57:53;5.18;;;1.88;;
71639;SDS011;60912;48.968;10.124;2023-07-20T03:00:18;4.77;;;1.60;;
71639;SDS011;60912;48.968;10.124;2023-07-20T03:02:44;5.43;;;2.00;;
71639;SDS011;60912;48.968;10.124;2023-07-20T03:05:13;7.40;;;1.80;;
71639;SDS011;60912;48.968;10.124;2023-07-20T03:07:38;3.92;;;1.80;;
71639;SDS011;60912;48.968;10.124;2023-07-20T03:10:04;4.07;;;1.70;;
71639;SDS011;60912;48.968;10.124;2023-07-20T03:12:34;4.28;;;1.92;;
71639;SDS011;60912;48.968;10.124;2023-07-20T03:14:59;6.15;;;2.03;;
71639;SDS011;60912;48.968;10.124;2023-07-20T03:17:24;3.60;;;1.73;;
71639;SDS011;60912;48.968;10.124;2023-07-20T03:19:50;5.83;;;1.80;;
71639;SDS011;60912;48.968;10.124;2023-07-20T03:22:15;4.97;;;1.93;;
71639;SDS011;60912;48.968;10.124;2023-07-20T03:24:41;4.60;;;1.90;;
71639;SDS011;60912;48.968;10.124;2023-07-20T03:27:06;5.22;;;1.63;;
71639;SDS011;60912;48.968;10.124;2023-07-20T03:29:32;5.03;;;1.83;;
71639;SDS011;60912;48.968;10.124;2023-07-20T03:31:58;5.22;;;1.80;;
71639;SDS011;60912;48.968;10.124;2023-07-20T03:34:24;6.27;;;2.20;;
71639;SDS011;60912;48.968;10.124;2023-07-20T03:36:49;5.13;;;2.20;;
71639;SDS011;60912;48.968;10.124;2023-07-20T03:39:15;3.97;;;1.93;;
71639;SDS011;60912;48.968;10.124;2023-07-20T03:41:40;4.97;;;2.03;;
71639;SDS011;60912;48.968;10.124;2023-07-20T03:44:05;4.97;;;2.03;;
71639;SDS011;60912;48.968;10.124;2023-07-20T03:46:31;3.80;;;1.90;;
71639;SDS011;60912;48.968;10.124;2023-07-20T03:48:56;3.40;;;1.70;;
71639;SDS011;60912;48.968;10.124;2023-07-20T03:51:21;3.63;;;1.75;;
71639;SDS011;60912;48.968;10.124;2023-07-20T03:53:47;3.80;;;1.80;;
71639;SDS011;60912;48.968;10.124;2023-07-20T03:56:12;4.67;;;1.53;;
71639;SDS011;60912;48.968;10.124;2023-07-20T03:58:37;4.47;;;2.00;;
71639;SDS011;60912;48.968;10.124;2023-07-20T04:01:03;4.53;;;1.80;;
71639;SDS011;60912;48.968;10.124;2023-07-20T04:03:28;4.50;;;2.33;;
71639;SDS011;60912;48.968;10.124;2023-07-20T04:05:54;4.93;;;1.60;;
71639;SDS011;60912;48.968;10.124;2023-07-20T04:08:20;3.23;;;1.53;;
71639;SDS011;60912;48.968;10.124;2023-07-20T04:10:47;3.63;;;1.60;;
71639;SDS011;60912;48.968;10.124;2023-07-20T04:13:12;3.43;;;1.63;;
71639;SDS011;60912;48.968;10.124;2023-07-20T04:15:38;3.60;;;1.60;;
71639;SDS011;60912;48.968;10.124;2023-07-20T04:18:03;3.97;;;1.80;;
71639;SDS011;60912;48.968;10.124;2023-07-20T04:20:29;5.57;;;2.20;;
71639;SDS011;60912;48.968;10.124;2023-07-20T04:22:54;4.20;;;1.80;;
71639;SDS011;60912;48.968;10.124;2023-07-20T04:25:20;6.03;;;1.80;;
71639;SDS011;60912;48.968;10.124;2023-07-20T04:27:45;4.83;;;1.60;;
71639;SDS011;60912;48.968;10.124;2023-07-20T04:30:11;3.80;;;2.00;;
71639;SDS011;60912;48.968;10.124;2023-07-20T04:32:38;3.80;;;1.70;;
71639;SDS011;60912;48.968;10.124;2023-07-20T04:35:06;6.25;;;2.13;;
71639;SDS011;60912;48.968;10.124;2023-07-20T04:37:33;3.97;;;1.80;;
71639;SDS011;60912;48.968;10.124;2023-07-20T04:39:58;6.57;;;1.80;;
71639;SDS011;60912;48.968;10.124;2023-07-20T04:42:23;5.50;;;1.80;;
71639;SDS011;60912;48.968;10.124;2023-07-20T04:44:49;4.17;;;1.83;;
71639;SDS011;60912;48.968;10.124;2023-07-20T04:47:14;3.20;;;1.70;;
71639;SDS011;60912;48.968;10.124;2023-07-20T04:49:39;3.20;;;1.70;;
71639;SDS011;60912;48.968;10.124;2023-07-20T04:52:05;4.63;;;1.80;;
71639;SDS011;60912;48.968;10.124;2023-07-20T04:54:31;6.32;;;1.65;;
71639;SDS011;60912;48.968;10.124;2023-07-20T04:56:56;5.43;;;1.87;;
71639;SDS011;60912;48.968;10.124;2023-07-20T04:59:22;5.17;;;1.60;;
71639;SDS011;60912;48.968;10.124;2023-07-20T05:01:47;3.47;;;1.70;;
71639;SDS011;60912;48.968;10.124;2023-07-20T05:04:12;4.17;;;1.90;;
71639;SDS011;60912;48.968;10.124;2023-07-20T05:06:38;3.00;;;1.50;;
71639;SDS011;60912;48.968;10.124;2023-07-20T05:09:04;4.03;;;1.60;;
71639;SDS011;60912;48.968;10.124;2023-07-20T05:11:30;4.35;;;1.70;;
71639;SDS011;60912;48.968;10.124;2023-07-20T05:13:55;4.40;;;1.70;;
71639;SDS011;60912;48.968;10.124;2023-07-20T05:16:21;3.27;;;1.53;;
71639;SDS011;60912;48.968;10.124;2023-07-20T05:18:46;3.43;;;1.73;;
71639;SDS011;60912;48.968;10.124;2023-07-20T05:21:11;4.13;;;1.43;;
71639;SDS011;60912;48.968;10.124;2023-07-20T05:23:37;5.23;;;1.80;;
71639;SDS011;60912;48.968;10.124;2023-07-20T05:26:02;4.47;;;1.42;;
71639;SDS011;60912;48.968;10.124;2023-07-20T05:28:28;4.17;;;1.77;;
71639;SDS011;60912;48.968;10.124;2023-07-20T05:30:53;4.27;;;1.70;;
71639;SDS011;60912;48.968;10.124;2023-07-20T05:33:19;3.20;;;1.60;;
71639;SDS011;60912;48.968;10.124;2023-07-20T05:35:45;5.17;;;1.90;;
71639;SDS011;60912;48.968;10.124;2023-07-20T05:38:11;8.65;;;1.80;;
71639;SDS011;60912;48.968;10.124;2023-07-20T05:40:40;3.60;;;1.60;;
71639;SDS011;60912;48.968;10.124;2023-07-20T05:43:06;5.03;;;1.50;;
71639;SDS011;60912;48.968;10.124;2023-07-20T05:45:32;3.70;;;1.63;;
71639;SDS011;60912;48.968;10.124;2023-07-20T05:47:57;4.57;;;1.73;;
71639;SDS011;60912;48.968;10.124;2023-07-20T05:50:23;3.92;;;1.65;;
71639;SDS011;60912;48.968;10.124;2023-07-20T05:52:48;3.50;;;1.60;;
71639;SDS011;60912;48.968;10.124;2023-07-20T05:55:14;6.67;;;1.93;;
71639;SDS011;60912;48.968;10.124;2023-07-20T05:57:39;3.73;;;1.47;;
71639;SDS011;60912;48.968;10.124;2023-07-20T06:00:07;5.05;;;1.88;;
71639;SDS011;60912;48.968;10.124;2023-07-20T06:02:33;4.35;;;1.70;;
71639;SDS011;60912;48.968;10.124;2023-07-20T06:04:58;3.97;;;1.70;;
71639;SDS011;60912;48.968;10.124;2023-07-20T06:07:23;4.47;;;1.70;;
71639;SDS011;60912;48.968;10.124;2023-07-20T06:09:49;4.95;;;1.70;;
71639;SDS011;60912;48.968;10.124;2023-07-20T06:12:41;5.77;;;2.07;;
71639;SDS011;60912;48.968;10.124;2023-07-20T06:15:16;4.68;;;1.58;;
71639;SDS011;60912;48.968;10.124;2023-07-20T06:17:50;3.53;;;1.80;;
71639;SDS011;60912;48.968;10.124;2023-07-20T06:20:15;4.45;;;2.00;;
71639;SDS011;60912;48.968;10.124;2023-07-20T06:22:40;5.33;;;1.83;;
71639;SDS011;60912;48.968;10.124;2023-07-20T06:25:06;4.33;;;1.73;;
71639;SDS011;60912;48.968;10.124;2023-07-20T06:27:31;4.70;;;1.70;;
71639;SDS011;60912;48.968;10.124;2023-07-20T06:29:57;4.93;;;1.80;;
71639;SDS011;60912;48.968;10.124;2023-07-20T06:32:22;5.88;;;1.80;;
71639;SDS011;60912;48.968;10.124;2023-07-20T06:34:47;4.50;;;1.70;;
71639;SDS011;60912;48.968;10.124;2023-07-20T06:37:13;4.80;;;1.60;;
71639;SDS011;60912;48.968;10.124;2023-07-20T06:39:38;4.53;;;1.80;;
71639;SDS011;60912;48.968;10.124;2023-07-20T06:42:03;5.03;;;1.93;;
71639;SDS011;60912;48.968;10.124;2023-07-20T06:44:36;5.88;;;1.75;;
71639;SDS011;60912;48.968;10.124;2023-07-20T06:47:04;3.92;;;1.65;;
71639;SDS011;60912;48.968;10.124;2023-07-20T06:49:29;3.47;;;1.70;;
71639;SDS011;60912;48.968;10.124;2023-07-20T06:51:55;5.00;;;2.00;;
71639;SDS011;60912;48.968;10.124;2023-07-20T06:54:20;6.20;;;1.77;;
71639;SDS011;60912;48.968;10.124;2023-07-20T06:56:46;3.40;;;1.60;;
71639;SDS011;60912;48.968;10.124;2023-07-20T06:59:11;5.53;;;1.80;;
71639;SDS011;60912;48.968;10.124;2023-07-20T07:01:36;5.20;;;1.90;;
71639;SDS011;60912;48.968;10.124;2023-07-20T07:04:02;6.43;;;1.97;;
71639;SDS011;60912;48.968;10.124;2023-07-20T07:06:28;6.00;;;2.27;;
71639;SDS011;60912;48.968;10.124;2023-07-20T07:08:55;8.18;;;2.72;;
71639;SDS011;60912;48.968;10.124;2023-07-20T07:11:20;7.03;;;1.63;;
71639;SDS011;60912;48.968;10.124;2023-07-20T07:13:47;6.03;;;1.95;;
71639;SDS011;60912;48.968;10.124;2023-07-20T07:16:14;3.30;;;1.70;;
71639;SDS011;60912;48.968;10.124;2023-07-20T07:18:43;4.88;;;1.70;;
71639;SDS011;60912;48.968;10.124;2023-07-20T07:21:09;4.43;;;1.88;;
71639;SDS011;60912;48.968;10.124;2023-07-20T07:23:35;6.87;;;1.90;;
71639;SDS011;60912;48.968;10.124;2023-07-20T07:26:00;4.63;;;1.80;;
71639;SDS011;60912;48.968;10.124;2023-07-20T07:28:25;3.90;;;1.50;;
71639;SDS011;60912;48.968;10.124;2023-07-20T07:30:51;5.10;;;1.60;;
71639;SDS011;60912;48.968;10.124;2023-07-20T07:33:16;4.50;;;1.60;;
71639;SDS011;60912;48.968;10.124;2023-07-20T07:35:41;5.25;;;1.40;;
71639;SDS011;60912;48.968;10.124;2023-07-20T07:38:07;4.40;;;1.57;;
71639;SDS011;60912;48.968;10.124;2023-07-20T07:40:32;5.17;;;1.60;;
71639;SDS011;60912;48.968;10.124;2023-07-20T07:42:58;3.93;;;1.53;;
71639;SDS011;60912;48.968;10.124;2023-07-20T07:45:23;5.37;;;1.60;;
71639;SDS011;60912;48.968;10.124;2023-07-20T07:47:48;5.18;;;1.60;;
71639;SDS011;60912;48.968;10.124;2023-07-20T07:50:14;3.73;;;1.67;;
71639;SDS011;60912;48.968;10.124;2023-07-20T07:52:39;3.97;;;1.70;;
71639;SDS011;60912;48.968;10.124;2023-07-20T07:55:05;3.23;;;1.40;;
71639;SDS011;60912;48.968;10.124;2023-07-20T07:57:30;4.88;;;1.70;;
71639;SDS011;60912;48.968;10.124;2023-07-20T07:59:56;4.67;;;1.50;;
71639;SDS011;60912;48.968;10.124;2023-07-20T08:02:21;4.77;;;1.40;;
71639;SDS011;60912;48.968;10.124;2023-07-20T08:04:46;4.53;;;1.50;;
71639;SDS011;60912;48.968;10.124;2023-07-20T08:07:12;4.87;;;1.43;;
71639;SDS011;60912;48.968;10.124;2023-07-20T08:09:37;4.57;;;1.67;;
71639;SDS011;60912;48.968;10.124;2023-07-20T08:12:03;4.53;;;1.57;;
71639;SDS011;60912;48.968;10.124;2023-07-20T08:14:29;3.50;;;1.50;;
71639;SDS011;60912;48.968;10.124;2023-07-20T08:16:54;4.40;;;1.80;;
71639;SDS011;60912;48.968;10.124;2023-07-20T08:19:19;4.20;;;1.70;;
71639;SDS011;60912;48.968;10.124;2023-07-20T08:21:45;3.38;;;1.45;;
71639;SDS011;60912;48.968;10.124;2023-07-20T08:24:10;5.83;;;1.53;;
71639;SDS011;60912;48.968;10.124;2023-07-20T08:26:35;4.67;;;1.43;;
71639;SDS011;60912;48.968;10.124;2023-07-20T08:29:01;3.93;;;1.53;;
71639;SDS011;60912;48.968;10.124;2023-07-20T08:31:26;2.90;;;1.40;;
71639;SDS011;60912;48.968;10.124;2023-07-20T08:33:53;7.20;;;1.63;;
71639;SDS011;60912;48.968;10.124;2023-07-20T08:36:18;3.10;;;1.42;;
71639;SDS011;60912;48.968;10.124;2023-07-20T08:38:44;3.87;;;1.40;;
71639;SDS011;60912;48.968;10.124;2023-07-20T08:41:09;3.53;;;1.40;;
71639;SDS011;60912;48.968;10.124;2023-07-20T08:43:35;4.18;;;1.50;;
71639;SDS011;60912;48.968;10.124;2023-07-20T08:46:02;3.37;;;1.43;;
71639;SDS011;60912;48.968;10.124;2023-07-20T08:48:29;6.68;;;1.60;;
71639;SDS011;60912;48.968;10.124;2023-07-20T08:50:55;4.95;;;1.30;;
71639;SDS011;60912;48.968;10.124;2023-07-20T08:53:22;4.15;;;1.50;;
71639;SDS011;60912;48.968;10.124;2023-07-20T08:55:48;5.33;;;1.60;;
71639;SDS011;60912;48.968;10.124;2023-07-20T08:58:16;5.18;;;1.50;;
71639;SDS011;60912;48.968;10.124;2023-07-20T09:00:43;2.92;;;1.40;;
71639;SDS011;60912;48.968;10.124;2023-07-20T09:03:10;5.57;;;1.60;;
71639;SDS011;60912;48.968;10.124;2023-07-20T09:05:36;3.50;;;1.67;;
71639;SDS011;60912;48.968;10.124;2023-07-20T09:08:02;6.15;;;1.40;;
71639;SDS011;60912;48.968;10.124;2023-07-20T09:10:30;2.92;;;1.40;;
71639;SDS011;60912;48.968;10.124;2023-07-20T09:12:55;2.70;;;1.30;;
71639;SDS011;60912;48.968;10.124;2023-07-20T09:15:22;2.90;;;1.43;;
71639;SDS011;60912;48.968;10.124;2023-07-20T09:17:48;3.70;;;1.58;;
71639;SDS011;60912;48.968;10.124;2023-07-20T09:20:15;3.57;;;1.43;;
71639;SDS011;60912;48.968;10.124;2023-07-20T09:22:42;3.72;;;1.50;;
71639;SDS011;60912;48.968;10.124;2023-07-20T09:25:14;4.43;;;1.20;;
71639;SDS011;60912;48.968;10.124;2023-07-20T09:27:45;4.70;;;1.30;;
71639;SDS011;60912;48.968;10.124;2023-07-20T09:30:13;3.73;;;1.70;;
71639;SDS011;60912;48.968;10.124;2023-07-20T09:32:41;3.10;;;1.40;;
71639;SDS011;60912;48.968;10.124;2023-07-20T09:35:17;2.15;;;1.13;;
71639;SDS011;60912;48.968;10.124;2023-07-20T09:37:48;3.55;;;1.40;;
71639;SDS011;60912;48.968;10.124;2023-07-20T09:40:23;2.67;;;1.40;;
71639;SDS011;60912;48.968;10.124;2023-07-20T09:42:49;5.90;;;1.70;;
71639;SDS011;60912;48.968;10.124;2023-07-20T09:45:17;4.88;;;1.40;;
71639;SDS011;60912;48.968;10.124;2023-07-20T09:47:43;2.97;;;1.35;;
71639;SDS011;60912;48.968;10.124;2023-07-20T09:50:08;4.07;;;1.50;;
71639;SDS011;60912;48.968;10.124;2023-07-20T09:52:40;10.18;;;1.60;;
71639;SDS011;60912;48.968;10.124;2023-07-20T09:55:07;3.87;;;1.47;;
71639;SDS011;60912;48.968;10.124;2023-07-20T09:57:33;4.00;;;1.40;;
71639;SDS011;60912;48.968;10.124;2023-07-20T09:59:59;3.10;;;1.60;;
71639;SDS011;60912;48.968;10.124;2023-07-20T10:02:28;3.10;;;1.20;;
71639;SDS011;60912;48.968;10.124;2023-07-20T10:04:58;4.30;;;1.40;;
71639;SDS011;60912;48.968;10.124;2023-07-20T10:07:28;4.33;;;1.20;;
71639;SDS011;60912;48.968;10.124;2023-07-20T10:09:55;6.57;;;1.48;;
71639;SDS011;60912;48.968;10.124;2023-07-20T10:12:23;3.90;;;1.55;;
71639;SDS011;60912;48.968;10.124;2023-07-20T10:17:36;4.00;;;1.58;;
71639;SDS011;60912;48.968;10.124;2023-07-20T10:20:04;3.60;;;1.40;;
71639;SDS011;60912;48.968;10.124;2023-07-20T10:22:36;3.95;;;1.45;;
71639;SDS011;60912;48.968;10.124;2023-07-20T10:25:02;7.40;;;1.80;;
71639;SDS011;60912;48.968;10.124;2023-07-20T10:27:29;3.47;;;1.20;;
71639;SDS011;60912;48.968;10.124;2023-07-20T10:29:55;4.93;;;1.60;;
71639;SDS011;60912;48.968;10.124;2023-07-20T10:32:22;5.47;;;1.80;;
71639;SDS011;60912;48.968;10.124;2023-07-20T10:34:51;5.43;;;1.30;;
71639;SDS011;60912;48.968;10.124;2023-07-20T10:37:45;4.20;;;1.63;;
71639;SDS011;60912;48.968;10.124;2023-07-20T10:43:04;6.72;;;1.70;;
71639;SDS011;60912;48.968;10.124;2023-07-20T10:48:06;4.97;;;1.40;;
71639;SDS011;60912;48.968;10.124;2023-07-20T10:50:40;11.23;;;1.80;;
71639;SDS011;60912;48.968;10.124;2023-07-20T10:55:41;4.05;;;1.73;;
71639;SDS011;60912;48.968;10.124;2023-07-20T10:58:08;5.80;;;1.77;;
71639;SDS011;60912;48.968;10.124;2023-07-20T11:00:35;5.07;;;2.20;;
71639;SDS011;60912;48.968;10.124;2023-07-20T11:03:00;3.88;;;1.65;;
71639;SDS011;60912;48.968;10.124;2023-07-20T11:05:34;5.20;;;1.80;;
71639;SDS011;60912;48.968;10.124;2023-07-20T11:08:38;3.55;;;1.50;;
71639;SDS011;60912;48.968;10.124;2023-07-20T11:14:00;10.00;;;1.83;;
71639;SDS011;60912;48.968;10.124;2023-07-20T11:16:37;3.10;;;1.30;;
71639;SDS011;60912;48.968;10.124;2023-07-20T11:19:14;3.22;;;1.40;;
71639;SDS011;60912;48.968;10.124;2023-07-20T11:21:50;2.80;;;1.30;;
71639;SDS011;60912;48.968;10.124;2023-07-20T11:24:17;5.38;;;1.50;;
71639;SDS011;60912;48.968;10.124;2023-07-20T11:26:44;5.00;;;1.40;;
71639;SDS011;60912;48.968;10.124;2023-07-20T11:29:10;3.47;;;1.42;;
71639;SDS011;60912;48.968;10.124;2023-07-20T11:31:37;6.00;;;1.50;;
71639;SDS011;60912;48.968;10.124;2023-07-20T11:34:03;3.88;;;1.13;;
71639;SDS011;60912;48.968;10.124;2023-07-20T11:36:29;2.87;;;1.30;;
71639;SDS011;60912;48.968;10.124;2023-07-20T11:38:54;2.63;;;1.43;;
71639;SDS011;60912;48.968;10.124;2023-07-20T11:41:20;3.53;;;1.20;;
71639;SDS011;60912;48.968;10.124;2023-07-20T11:43:46;2.90;;;1.20;;
71639;SDS011;60912;48.968;10.124;2023-07-20T11:46:12;3.15;;;1.20;;
71639;SDS011;60912;48.968;10.124;2023-07-20T11:48:38;5.22;;;1.60;;
71639;SDS011;60912;48.968;10.124;2023-07-20T11:51:05;3.93;;;1.20;;
71639;SDS011;60912;48.968;10.124;2023-07-20T11:53:30;3.33;;;1.13;;
71639;SDS011;60912;48.968;10.124;2023-07-20T11:55:58;5.10;;;1.20;;
71639;SDS011;60912;48.968;10.124;2023-07-20T11:58:23;3.90;;;1.13;;
71639;SDS011;60912;48.968;10.124;2023-07-20T12:00:49;3.77;;;1.20;;
71639;SDS011;60912;48.968;10.124;2023-07-20T12:03:14;3.67;;;1.30;;
71639;SDS011;60912;48.968;10.124;2023-07-20T12:05:45;2.50;;;1.23;;
71639;SDS011;60912;48.968;10.124;2023-07-20T12:08:11;3.80;;;1.20;;
71639;SDS011;60912;48.968;10.124;2023-07-20T12:10:38;4.00;;;1.10;;
71639;SDS011;60912;48.968;10.124;2023-07-20T12:13:09;3.28;;;1.10;;
71639;SDS011;60912;48.968;10.124;2023-07-20T12:15:35;2.37;;;1.17;;
71639;SDS011;60912;48.968;10.124;2023-07-20T12:18:01;4.25;;;1.25;;
71639;SDS011;60912;48.968;10.124;2023-07-20T12:22:57;3.85;;;1.10;;
71639;SDS011;60912;48.968;10.124;2023-07-20T12:25:39;2.10;;;0.93;;
71639;SDS011;60912;48.968;10.124;2023-07-20T12:28:12;3.50;;;1.17;;
71639;SDS011;60912;48.968;10.124;2023-07-20T12:30:41;4.28;;;1.10;;
71639;SDS011;60912;48.968;10.124;2023-07-20T12:33:07;2.08;;;1.00;;
71639;SDS011;60912;48.968;10.124;2023-07-20T12:35:33;4.70;;;1.15;;
71639;SDS011;60912;48.968;10.124;2023-07-20T12:37:59;4.47;;;1.10;;
71639;SDS011;60912;48.968;10.124;2023-07-20T12:40:25;2.47;;;1.05;;
71639;SDS011;60912;48.968;10.124;2023-07-20T12:42:50;3.47;;;1.00;;
71639;SDS011;60912;48.968;10.124;2023-07-20T12:45:16;3.25;;;1.20;;
71639;SDS011;60912;48.968;10.124;2023-07-20T12:47:41;2.83;;;1.10;;
71639;SDS011;60912;48.968;10.124;2023-07-20T12:50:09;4.22;;;1.10;;
71639;SDS011;60912;48.968;10.124;2023-07-20T12:52:38;3.60;;;1.10;;
71639;SDS011;60912;48.968;10.124;2023-07-20T12:55:05;2.63;;;1.10;;
71639;SDS011;60912;48.968;10.124;2023-07-20T12:57:32;5.80;;;1.20;;
71639;SDS011;60912;48.968;10.124;2023-07-20T12:59:58;2.67;;;1.20;;
71639;SDS011;60912;48.968;10.124;2023-07-20T13:02:24;4.97;;;1.20;;
71639;SDS011;60912;48.968;10.124;2023-07-20T13:04:49;2.20;;;1.17;;
71639;SDS011;60912;48.968;10.124;2023-07-20T13:07:14;7.63;;;1.30;;
71639;SDS011;60912;48.968;10.124;2023-07-20T13:09:40;4.07;;;1.17;;
71639;SDS011;60912;48.968;10.124;2023-07-20T13:12:05;5.55;;;1.10;;
71639;SDS011;60912;48.968;10.124;2023-07-20T13:14:31;4.07;;;1.20;;
71639;SDS011;60912;48.968;10.124;2023-07-20T13:16:57;2.70;;;1.30;;
71639;SDS011;60912;48.968;10.124;2023-07-20T13:19:22;2.53;;;1.10;;
71639;SDS011;60912;48.968;10.124;2023-07-20T13:21:47;3.10;;;1.20;;
71639;SDS011;60912;48.968;10.124;2023-07-20T13:24:13;3.40;;;1.45;;
71639;SDS011;60912;48.968;10.124;2023-07-20T13:26:38;3.93;;;1.20;;
71639;SDS011;60912;48.968;10.124;2023-07-20T13:29:04;3.07;;;1.13;;
71639;SDS011;60912;48.968;10.124;2023-07-20T13:31:29;4.13;;;1.30;;
71639;SDS011;60912;48.968;10.124;2023-07-20T13:33:55;3.00;;;1.23;;
71639;SDS011;60912;48.968;10.124;2023-07-20T13:36:21;4.57;;;1.20;;
71639;SDS011;60912;48.968;10.124;2023-07-20T13:38:51;5.95;;;1.35;;
71639;SDS011;60912;48.968;10.124;2023-07-20T13:41:16;2.45;;;1.20;;
71639;SDS011;60912;48.968;10.124;2023-07-20T13:43:41;3.57;;;1.17;;
71639;SDS011;60912;48.968;10.124;2023-07-20T13:46:07;2.20;;;1.10;;
71639;SDS011;60912;48.968;10.124;2023-07-20T13:48:32;2.47;;;1.20;;
71639;SDS011;60912;48.968;10.124;2023-07-20T13:50:58;3.70;;;1.20;;
71639;SDS011;60912;48.968;10.124;2023-07-20T13:53:23;2.27;;;1.10;;
71639;SDS011;60912;48.968;10.124;2023-07-20T13:55:49;4.53;;;1.13;;
71639;SDS011;60912;48.968;10.124;2023-07-20T13:58:14;4.13;;;1.50;;
71639;SDS011;60912;48.968;10.124;2023-07-20T14:00:40;7.73;;;1.50;;
71639;SDS011;60912;48.968;10.124;2023-07-20T14:03:05;2.97;;;1.30;;
71639;SDS011;60912;48.968;10.124;2023-07-20T14:05:31;2.33;;;1.10;;
71639;SDS011;60912;48.968;10.124;2023-07-20T14:07:56;2.27;;;1.03;;
71639;SDS011;60912;48.968;10.124;2023-07-20T14:10:21;2.43;;;1.20;;
71639;SDS011;60912;48.968;10.124;2023-07-20T14:12:47;3.27;;;1.10;;
71639;SDS011;60912;48.968;10.124;2023-07-20T14:15:13;3.37;;;1.40;;
71639;SDS011;60912;48.968;10.124;2023-07-20T14:17:38;3.78;;;1.33;;
71639;SDS011;60912;48.968;10.124;2023-07-20T14:20:04;3.63;;;1.30;;
71639;SDS011;60912;48.968;10.124;2023-07-20T14:22:31;2.85;;;1.20;;
71639;SDS011;60912;48.968;10.124;2023-07-20T14:24:56;2.70;;;1.10;;
71639;SDS011;60912;48.968;10.124;2023-07-20T14:27:22;3.03;;;1.20;;
71639;SDS011;60912;48.968;10.124;2023-07-20T14:29:47;3.25;;;1.30;;
71639;SDS011;60912;48.968;10.124;2023-07-20T14:32:13;2.37;;;1.20;;
71639;SDS011;60912;48.968;10.124;2023-07-20T14:34:38;3.07;;;1.10;;
71639;SDS011;60912;48.968;10.124;2023-07-20T14:37:05;2.85;;;1.30;;
71639;SDS011;60912;48.968;10.124;2023-07-20T14:39:31;4.47;;;1.30;;
71639;SDS011;60912;48.968;10.124;2023-07-20T14:41:56;2.57;;;1.20;;
71639;SDS011;60912;48.968;10.124;2023-07-20T14:44:22;2.35;;;1.20;;
71639;SDS011;60912;48.968;10.124;2023-07-20T14:46:47;3.73;;;1.50;;
71639;SDS011;60912;48.968;10.124;2023-07-20T14:49:13;2.33;;;1.10;;
71639;SDS011;60912;48.968;10.124;2023-07-20T14:51:38;5.33;;;1.40;;
71639;SDS011;60912;48.968;10.124;2023-07-20T14:54:08;2.28;;;1.15;;
71639;SDS011;60912;48.968;10.124;2023-07-20T14:56:37;3.33;;;1.42;;